sensor_id;sensor_type;location;lat;lon;timestamp;P1;durP1;ratioP1;P2;durP2;ratioP2
55288;SDS011;41154;45.394;5.734;2023-04-23T00:00:14;5.28;;;2.88;;
55288;SDS011;41154;45.394;5.734;2023-04-23T00:02:44;3.83;;;2.50;;
55288;SDS011;41154;45.394;5.734;2023-04-23T00:05:11;4.72;;;3.03;;
55288;SDS011;41154;45.394;5.734;2023-04-23T00:07:37;4.55;;;2.80;;
55288;SDS011;41154;45.394;5.734;2023-04-23T00:10:03;7.82;;;3.47;;
55288;SDS011;41154;45.394;5.734;2023-04-23T00:12:30;4.40;;;3.00;;
55288;SDS011;41154;45.394;5.734;2023-04-23T00:14:56;6.50;;;3.30;;
55288;SDS011;41154;45.394;5.734;2023-04-23T00:17:23;5.40;;;2.75;;
55288;SDS011;41154;45.394;5.734;2023-04-23T00:19:48;5.18;;;3.20;;
55288;SDS011;41154;45.394;5.734;2023-04-23T00:22:15;5.38;;;3.03;;
55288;SDS011;41154;45.394;5.734;2023-04-23T00:24:42;8.75;;;3.47;;
55288;SDS011;41154;45.394;5.734;2023-04-23T00:27:08;6.38;;;3.05;;
55288;SDS011;41154;45.394;5.734;2023-04-23T00:29:33;4.90;;;3.10;;
55288;SDS011;41154;45.394;5.734;2023-04-23T00:31:59;3.92;;;2.60;;
55288;SDS011;41154;45.394;5.734;2023-04-23T00:34:26;4.68;;;3.20;;
55288;SDS011;41154;45.394;5.734;2023-04-23T00:36:52;5.40;;;3.33;;
55288;SDS011;41154;45.394;5.734;2023-04-23T00:39:18;4.72;;;2.58;;
55288;SDS011;41154;45.394;5.734;2023-04-23T00:41:44;5.18;;;2.90;;
55288;SDS011;41154;45.394;5.734;2023-04-23T00:44:11;6.00;;;2.90;;
55288;SDS011;41154;45.394;5.734;2023-04-23T00:46:37;3.63;;;2.65;;
55288;SDS011;41154;45.394;5.734;2023-04-23T00:49:03;3.90;;;3.03;;
55288;SDS011;41154;45.394;5.734;2023-04-23T00:51:29;5.57;;;3.28;;
55288;SDS011;41154;45.394;5.734;2023-04-23T00:53:56;5.10;;;3.17;;
55288;SDS011;41154;45.394;5.734;2023-04-23T00:56:22;7.57;;;2.75;;
55288;SDS011;41154;45.394;5.734;2023-04-23T00:58:50;4.10;;;2.85;;
55288;SDS011;41154;45.394;5.734;2023-04-23T01:01:17;6.05;;;3.10;;
55288;SDS011;41154;45.394;5.734;2023-04-23T01:03:45;3.72;;;2.58;;
55288;SDS011;41154;45.394;5.734;2023-04-23T01:06:16;5.75;;;3.25;;
55288;SDS011;41154;45.394;5.734;2023-04-23T01:08:43;5.57;;;3.40;;
55288;SDS011;41154;45.394;5.734;2023-04-23T01:11:10;6.97;;;3.30;;
55288;SDS011;41154;45.394;5.734;2023-04-23T01:13:40;7.70;;;3.65;;
55288;SDS011;41154;45.394;5.734;2023-04-23T01:16:06;4.70;;;3.40;;
55288;SDS011;41154;45.394;5.734;2023-04-23T01:18:32;5.63;;;3.75;;
55288;SDS011;41154;45.394;5.734;2023-04-23T01:20:58;6.82;;;3.22;;
55288;SDS011;41154;45.394;5.734;2023-04-23T01:23:24;4.25;;;3.22;;
55288;SDS011;41154;45.394;5.734;2023-04-23T01:25:52;5.75;;;3.20;;
55288;SDS011;41154;45.394;5.734;2023-04-23T01:28:18;6.55;;;3.40;;
55288;SDS011;41154;45.394;5.734;2023-04-23T01:30:45;7.05;;;3.63;;
55288;SDS011;41154;45.394;5.734;2023-04-23T01:33:13;8.50;;;3.45;;
55288;SDS011;41154;45.394;5.734;2023-04-23T01:35:40;4.07;;;3.45;;
55288;SDS011;41154;45.394;5.734;2023-04-23T01:38:07;5.00;;;3.72;;
55288;SDS011;41154;45.394;5.734;2023-04-23T01:40:35;5.57;;;3.60;;
55288;SDS011;41154;45.394;5.734;2023-04-23T01:43:02;6.88;;;3.92;;
55288;SDS011;41154;45.394;5.734;2023-04-23T01:45:29;4.55;;;3.17;;
55288;SDS011;41154;45.394;5.734;2023-04-23T01:47:56;7.25;;;3.80;;
55288;SDS011;41154;45.394;5.734;2023-04-23T01:50:22;5.63;;;3.28;;
55288;SDS011;41154;45.394;5.734;2023-04-23T01:52:50;5.88;;;3.70;;
55288;SDS011;41154;45.394;5.734;2023-04-23T01:55:17;4.95;;;3.25;;
55288;SDS011;41154;45.394;5.734;2023-04-23T01:57:44;6.20;;;3.47;;
55288;SDS011;41154;45.394;5.734;2023-04-23T02:00:11;4.47;;;3.58;;
55288;SDS011;41154;45.394;5.734;2023-04-23T02:02:39;7.35;;;3.63;;
55288;SDS011;41154;45.394;5.734;2023-04-23T02:05:16;4.80;;;3.60;;
55288;SDS011;41154;45.394;5.734;2023-04-23T02:07:43;5.63;;;3.05;;
55288;SDS011;41154;45.394;5.734;2023-04-23T02:10:11;5.55;;;3.42;;
55288;SDS011;41154;45.394;5.734;2023-04-23T02:12:38;8.55;;;4.03;;
55288;SDS011;41154;45.394;5.734;2023-04-23T02:15:04;7.72;;;3.83;;
55288;SDS011;41154;45.394;5.734;2023-04-23T02:17:31;5.57;;;3.85;;
55288;SDS011;41154;45.394;5.734;2023-04-23T02:19:58;7.28;;;3.75;;
55288;SDS011;41154;45.394;5.734;2023-04-23T02:22:24;9.77;;;4.00;;
55288;SDS011;41154;45.394;5.734;2023-04-23T02:24:51;9.23;;;4.32;;
55288;SDS011;41154;45.394;5.734;2023-04-23T02:27:17;5.93;;;3.72;;
55288;SDS011;41154;45.394;5.734;2023-04-23T02:29:44;6.78;;;3.42;;
55288;SDS011;41154;45.394;5.734;2023-04-23T02:32:10;4.57;;;3.55;;
55288;SDS011;41154;45.394;5.734;2023-04-23T02:34:36;4.97;;;3.65;;
55288;SDS011;41154;45.394;5.734;2023-04-23T02:37:02;7.40;;;3.38;;
55288;SDS011;41154;45.394;5.734;2023-04-23T02:39:29;9.07;;;3.75;;
55288;SDS011;41154;45.394;5.734;2023-04-23T02:41:56;5.50;;;3.33;;
55288;SDS011;41154;45.394;5.734;2023-04-23T02:44:23;4.53;;;3.47;;
55288;SDS011;41154;45.394;5.734;2023-04-23T02:46:50;5.20;;;3.60;;
55288;SDS011;41154;45.394;5.734;2023-04-23T02:49:16;4.90;;;3.30;;
55288;SDS011;41154;45.394;5.734;2023-04-23T02:51:44;7.75;;;3.38;;
55288;SDS011;41154;45.394;5.734;2023-04-23T02:54:11;6.32;;;3.47;;
55288;SDS011;41154;45.394;5.734;2023-04-23T02:56:38;4.40;;;3.28;;
55288;SDS011;41154;45.394;5.734;2023-04-23T02:59:03;7.40;;;3.08;;
55288;SDS011;41154;45.394;5.734;2023-04-23T03:01:30;5.32;;;3.75;;
55288;SDS011;41154;45.394;5.734;2023-04-23T03:03:57;6.93;;;3.55;;
55288;SDS011;41154;45.394;5.734;2023-04-23T03:06:25;6.45;;;3.45;;
55288;SDS011;41154;45.394;5.734;2023-04-23T03:08:51;6.10;;;3.83;;
55288;SDS011;41154;45.394;5.734;2023-04-23T03:11:17;4.88;;;3.55;;
55288;SDS011;41154;45.394;5.734;2023-04-23T03:13:43;7.07;;;3.40;;
55288;SDS011;41154;45.394;5.734;2023-04-23T03:16:08;5.93;;;3.85;;
55288;SDS011;41154;45.394;5.734;2023-04-23T03:18:35;4.78;;;3.50;;
55288;SDS011;41154;45.394;5.734;2023-04-23T03:21:01;5.63;;;3.67;;
55288;SDS011;41154;45.394;5.734;2023-04-23T03:23:28;6.15;;;4.07;;
55288;SDS011;41154;45.394;5.734;2023-04-23T03:25:54;5.93;;;4.30;;
55288;SDS011;41154;45.394;5.734;2023-04-23T03:28:20;5.97;;;3.72;;
55288;SDS011;41154;45.394;5.734;2023-04-23T03:30:46;5.30;;;3.55;;
55288;SDS011;41154;45.394;5.734;2023-04-23T03:33:12;4.15;;;3.75;;
55288;SDS011;41154;45.394;5.734;2023-04-23T03:35:37;5.60;;;3.78;;
55288;SDS011;41154;45.394;5.734;2023-04-23T03:38:08;6.20;;;3.55;;
55288;SDS011;41154;45.394;5.734;2023-04-23T03:40:35;9.60;;;4.68;;
55288;SDS011;41154;45.394;5.734;2023-04-23T03:43:02;6.20;;;3.60;;
55288;SDS011;41154;45.394;5.734;2023-04-23T03:45:48;6.15;;;3.92;;
55288;SDS011;41154;45.394;5.734;2023-04-23T03:48:14;7.13;;;3.63;;
55288;SDS011;41154;45.394;5.734;2023-04-23T03:50:41;8.27;;;4.00;;
55288;SDS011;41154;45.394;5.734;2023-04-23T03:53:19;5.20;;;3.40;;
55288;SDS011;41154;45.394;5.734;2023-04-23T03:56:04;5.25;;;3.60;;
55288;SDS011;41154;45.394;5.734;2023-04-23T03:58:35;5.72;;;3.80;;
55288;SDS011;41154;45.394;5.734;2023-04-23T04:01:01;10.18;;;4.28;;
55288;SDS011;41154;45.394;5.734;2023-04-23T04:03:27;6.32;;;4.10;;
55288;SDS011;41154;45.394;5.734;2023-04-23T04:05:54;6.95;;;4.13;;
55288;SDS011;41154;45.394;5.734;2023-04-23T04:08:20;8.57;;;4.20;;
55288;SDS011;41154;45.394;5.734;2023-04-23T04:10:46;5.70;;;3.50;;
55288;SDS011;41154;45.394;5.734;2023-04-23T04:13:12;5.65;;;3.70;;
55288;SDS011;41154;45.394;5.734;2023-04-23T04:15:40;4.63;;;3.25;;
55288;SDS011;41154;45.394;5.734;2023-04-23T04:18:06;7.45;;;3.95;;
55288;SDS011;41154;45.394;5.734;2023-04-23T04:20:31;5.60;;;3.85;;
55288;SDS011;41154;45.394;5.734;2023-04-23T04:22:57;4.97;;;3.80;;
55288;SDS011;41154;45.394;5.734;2023-04-23T04:25:23;5.32;;;4.03;;
55288;SDS011;41154;45.394;5.734;2023-04-23T04:27:49;5.55;;;4.07;;
55288;SDS011;41154;45.394;5.734;2023-04-23T04:30:14;10.20;;;3.80;;
55288;SDS011;41154;45.394;5.734;2023-04-23T04:32:40;5.57;;;3.67;;
55288;SDS011;41154;45.394;5.734;2023-04-23T04:35:07;5.75;;;3.33;;
55288;SDS011;41154;45.394;5.734;2023-04-23T04:37:33;5.13;;;3.63;;
55288;SDS011;41154;45.394;5.734;2023-04-23T04:39:59;6.60;;;3.60;;
55288;SDS011;41154;45.394;5.734;2023-04-23T04:42:29;5.40;;;3.72;;
55288;SDS011;41154;45.394;5.734;2023-04-23T04:44:55;5.72;;;3.35;;
55288;SDS011;41154;45.394;5.734;2023-04-23T04:47:24;6.90;;;4.07;;
55288;SDS011;41154;45.394;5.734;2023-04-23T04:49:50;5.72;;;4.25;;
55288;SDS011;41154;45.394;5.734;2023-04-23T04:52:15;6.28;;;4.68;;
55288;SDS011;41154;45.394;5.734;2023-04-23T04:54:41;5.68;;;3.70;;
55288;SDS011;41154;45.394;5.734;2023-04-23T04:57:07;4.90;;;3.50;;
55288;SDS011;41154;45.394;5.734;2023-04-23T04:59:33;4.78;;;2.85;;
55288;SDS011;41154;45.394;5.734;2023-04-23T05:01:59;5.97;;;3.50;;
55288;SDS011;41154;45.394;5.734;2023-04-23T05:04:25;7.05;;;3.20;;
55288;SDS011;41154;45.394;5.734;2023-04-23T05:06:50;4.65;;;3.50;;
55288;SDS011;41154;45.394;5.734;2023-04-23T05:09:16;5.30;;;3.45;;
55288;SDS011;41154;45.394;5.734;2023-04-23T05:11:42;6.07;;;3.50;;
55288;SDS011;41154;45.394;5.734;2023-04-23T05:14:08;4.68;;;3.20;;
55288;SDS011;41154;45.394;5.734;2023-04-23T05:16:33;4.85;;;3.28;;
55288;SDS011;41154;45.394;5.734;2023-04-23T05:18:59;4.57;;;3.40;;
55288;SDS011;41154;45.394;5.734;2023-04-23T05:21:25;5.13;;;3.55;;
55288;SDS011;41154;45.394;5.734;2023-04-23T05:23:52;4.55;;;3.45;;
55288;SDS011;41154;45.394;5.734;2023-04-23T05:26:19;14.50;;;4.13;;
55288;SDS011;41154;45.394;5.734;2023-04-23T05:28:44;12.55;;;4.25;;
55288;SDS011;41154;45.394;5.734;2023-04-23T05:31:10;9.07;;;4.32;;
55288;SDS011;41154;45.394;5.734;2023-04-23T05:33:36;10.65;;;4.93;;
55288;SDS011;41154;45.394;5.734;2023-04-23T05:36:03;6.80;;;4.47;;
55288;SDS011;41154;45.394;5.734;2023-04-23T05:38:28;17.05;;;4.63;;
55288;SDS011;41154;45.394;5.734;2023-04-23T05:40:54;7.95;;;4.10;;
55288;SDS011;41154;45.394;5.734;2023-04-23T05:43:20;12.32;;;4.22;;
55288;SDS011;41154;45.394;5.734;2023-04-23T05:45:46;6.22;;;3.72;;
55288;SDS011;41154;45.394;5.734;2023-04-23T05:48:11;4.95;;;3.80;;
55288;SDS011;41154;45.394;5.734;2023-04-23T05:50:38;6.88;;;3.97;;
55288;SDS011;41154;45.394;5.734;2023-04-23T05:53:04;10.13;;;3.45;;
55288;SDS011;41154;45.394;5.734;2023-04-23T05:55:29;5.28;;;3.35;;
55288;SDS011;41154;45.394;5.734;2023-04-23T05:57:55;5.28;;;3.75;;
55288;SDS011;41154;45.394;5.734;2023-04-23T06:00:21;4.90;;;3.30;;
55288;SDS011;41154;45.394;5.734;2023-04-23T06:02:48;4.28;;;2.95;;
55288;SDS011;41154;45.394;5.734;2023-04-23T06:05:13;5.65;;;3.10;;
55288;SDS011;41154;45.394;5.734;2023-04-23T06:07:39;8.02;;;3.80;;
55288;SDS011;41154;45.394;5.734;2023-04-23T06:10:05;5.28;;;3.30;;
55288;SDS011;41154;45.394;5.734;2023-04-23T06:12:32;8.68;;;4.05;;
55288;SDS011;41154;45.394;5.734;2023-04-23T06:14:57;7.10;;;3.47;;
55288;SDS011;41154;45.394;5.734;2023-04-23T06:17:24;7.97;;;3.90;;
55288;SDS011;41154;45.394;5.734;2023-04-23T06:19:53;5.10;;;3.40;;
55288;SDS011;41154;45.394;5.734;2023-04-23T06:22:18;5.13;;;3.75;;
55288;SDS011;41154;45.394;5.734;2023-04-23T06:24:44;7.07;;;4.05;;
55288;SDS011;41154;45.394;5.734;2023-04-23T06:27:10;4.88;;;3.60;;
55288;SDS011;41154;45.394;5.734;2023-04-23T06:29:42;6.53;;;3.58;;
55288;SDS011;41154;45.394;5.734;2023-04-23T06:32:08;6.95;;;3.17;;
55288;SDS011;41154;45.394;5.734;2023-04-23T06:34:34;6.28;;;4.20;;
55288;SDS011;41154;45.394;5.734;2023-04-23T06:37:00;7.18;;;3.95;;
55288;SDS011;41154;45.394;5.734;2023-04-23T06:39:26;5.22;;;3.53;;
55288;SDS011;41154;45.394;5.734;2023-04-23T06:41:51;5.28;;;3.55;;
55288;SDS011;41154;45.394;5.734;2023-04-23T06:44:22;4.72;;;3.53;;
55288;SDS011;41154;45.394;5.734;2023-04-23T06:46:51;7.00;;;3.78;;
55288;SDS011;41154;45.394;5.734;2023-04-23T06:49:17;8.15;;;4.55;;
55288;SDS011;41154;45.394;5.734;2023-04-23T06:51:43;5.45;;;3.28;;
55288;SDS011;41154;45.394;5.734;2023-04-23T06:54:08;4.18;;;2.95;;
55288;SDS011;41154;45.394;5.734;2023-04-23T06:56:34;4.28;;;2.80;;
55288;SDS011;41154;45.394;5.734;2023-04-23T06:59:00;3.20;;;2.63;;
55288;SDS011;41154;45.394;5.734;2023-04-23T07:01:26;4.45;;;3.17;;
55288;SDS011;41154;45.394;5.734;2023-04-23T07:03:52;7.72;;;3.22;;
55288;SDS011;41154;45.394;5.734;2023-04-23T07:06:18;7.43;;;3.67;;
55288;SDS011;41154;45.394;5.734;2023-04-23T07:08:44;3.78;;;3.15;;
55288;SDS011;41154;45.394;5.734;2023-04-23T07:11:10;4.78;;;2.95;;
55288;SDS011;41154;45.394;5.734;2023-04-23T07:13:36;4.20;;;3.30;;
55288;SDS011;41154;45.394;5.734;2023-04-23T07:16:03;5.25;;;3.08;;
55288;SDS011;41154;45.394;5.734;2023-04-23T07:18:28;3.80;;;2.90;;
55288;SDS011;41154;45.394;5.734;2023-04-23T07:20:54;2.75;;;2.40;;
55288;SDS011;41154;45.394;5.734;2023-04-23T07:23:20;3.78;;;2.40;;
55288;SDS011;41154;45.394;5.734;2023-04-23T07:25:46;3.25;;;2.35;;
55288;SDS011;41154;45.394;5.734;2023-04-23T07:28:12;5.20;;;2.17;;
55288;SDS011;41154;45.394;5.734;2023-04-23T07:30:37;2.53;;;2.25;;
55288;SDS011;41154;45.394;5.734;2023-04-23T07:33:03;3.58;;;2.50;;
55288;SDS011;41154;45.394;5.734;2023-04-23T07:35:29;3.53;;;2.58;;
55288;SDS011;41154;45.394;5.734;2023-04-23T07:37:55;4.90;;;2.72;;
55288;SDS011;41154;45.394;5.734;2023-04-23T07:40:22;2.17;;;1.98;;
55288;SDS011;41154;45.394;5.734;2023-04-23T07:42:48;3.22;;;2.10;;
55288;SDS011;41154;45.394;5.734;2023-04-23T07:45:15;3.33;;;2.58;;
55288;SDS011;41154;45.394;5.734;2023-04-23T07:47:41;6.15;;;2.45;;
55288;SDS011;41154;45.394;5.734;2023-04-23T07:50:07;2.45;;;1.92;;
55288;SDS011;41154;45.394;5.734;2023-04-23T07:52:33;3.53;;;2.03;;
55288;SDS011;41154;45.394;5.734;2023-04-23T07:55:00;3.47;;;1.95;;
55288;SDS011;41154;45.394;5.734;2023-04-23T07:57:26;4.20;;;2.10;;
55288;SDS011;41154;45.394;5.734;2023-04-23T07:59:52;3.72;;;2.10;;
55288;SDS011;41154;45.394;5.734;2023-04-23T08:02:17;4.60;;;1.70;;
55288;SDS011;41154;45.394;5.734;2023-04-23T08:04:47;2.65;;;2.10;;
55288;SDS011;41154;45.394;5.734;2023-04-23T08:07:13;2.95;;;1.92;;
55288;SDS011;41154;45.394;5.734;2023-04-23T08:09:39;1.75;;;1.58;;
55288;SDS011;41154;45.394;5.734;2023-04-23T08:12:05;2.38;;;1.70;;
55288;SDS011;41154;45.394;5.734;2023-04-23T08:14:30;2.28;;;1.80;;
55288;SDS011;41154;45.394;5.734;2023-04-23T08:16:57;2.35;;;1.55;;
55288;SDS011;41154;45.394;5.734;2023-04-23T08:19:23;2.42;;;1.27;;
55288;SDS011;41154;45.394;5.734;2023-04-23T08:21:48;2.15;;;1.42;;
55288;SDS011;41154;45.394;5.734;2023-04-23T08:24:14;2.90;;;1.45;;
55288;SDS011;41154;45.394;5.734;2023-04-23T08:26:40;1.50;;;1.10;;
55288;SDS011;41154;45.394;5.734;2023-04-23T08:29:06;2.92;;;1.30;;
55288;SDS011;41154;45.394;5.734;2023-04-23T08:31:32;3.97;;;1.48;;
55288;SDS011;41154;45.394;5.734;2023-04-23T08:33:57;6.63;;;1.40;;
55288;SDS011;41154;45.394;5.734;2023-04-23T08:36:23;2.28;;;1.30;;
55288;SDS011;41154;45.394;5.734;2023-04-23T08:38:50;2.08;;;1.55;;
55288;SDS011;41154;45.394;5.734;2023-04-23T08:41:17;3.15;;;1.13;;
55288;SDS011;41154;45.394;5.734;2023-04-23T08:43:45;3.08;;;1.42;;
55288;SDS011;41154;45.394;5.734;2023-04-23T08:46:15;2.47;;;1.30;;
55288;SDS011;41154;45.394;5.734;2023-04-23T08:48:43;3.40;;;1.63;;
55288;SDS011;41154;45.394;5.734;2023-04-23T08:51:09;2.42;;;1.40;;
55288;SDS011;41154;45.394;5.734;2023-04-23T08:53:41;1.55;;;1.33;;
55288;SDS011;41154;45.394;5.734;2023-04-23T08:56:08;4.78;;;2.65;;
55288;SDS011;41154;45.394;5.734;2023-04-23T08:58:35;2.92;;;1.10;;
55288;SDS011;41154;45.394;5.734;2023-04-23T09:01:01;2.08;;;1.38;;
55288;SDS011;41154;45.394;5.734;2023-04-23T09:03:27;1.55;;;1.27;;
55288;SDS011;41154;45.394;5.734;2023-04-23T09:05:53;2.00;;;1.40;;
55288;SDS011;41154;45.394;5.734;2023-04-23T09:08:20;3.95;;;1.35;;
55288;SDS011;41154;45.394;5.734;2023-04-23T09:10:45;2.80;;;1.20;;
55288;SDS011;41154;45.394;5.734;2023-04-23T09:13:11;1.55;;;1.10;;
55288;SDS011;41154;45.394;5.734;2023-04-23T09:15:41;1.67;;;1.58;;
55288;SDS011;41154;45.394;5.734;2023-04-23T09:18:10;1.45;;;1.30;;
55288;SDS011;41154;45.394;5.734;2023-04-23T09:20:36;2.20;;;1.20;;
55288;SDS011;41154;45.394;5.734;2023-04-23T09:23:07;3.53;;;1.38;;
55288;SDS011;41154;45.394;5.734;2023-04-23T09:25:33;3.78;;;1.45;;
55288;SDS011;41154;45.394;5.734;2023-04-23T09:27:59;8.25;;;1.33;;
55288;SDS011;41154;45.394;5.734;2023-04-23T09:30:27;4.25;;;1.48;;
55288;SDS011;41154;45.394;5.734;2023-04-23T09:32:53;1.67;;;1.48;;
55288;SDS011;41154;45.394;5.734;2023-04-23T09:35:19;3.25;;;1.38;;
55288;SDS011;41154;45.394;5.734;2023-04-23T09:37:46;2.22;;;1.35;;
55288;SDS011;41154;45.394;5.734;2023-04-23T09:40:14;3.47;;;1.55;;
55288;SDS011;41154;45.394;5.734;2023-04-23T09:42:41;6.22;;;1.65;;
55288;SDS011;41154;45.394;5.734;2023-04-23T09:45:12;4.43;;;1.50;;
55288;SDS011;41154;45.394;5.734;2023-04-23T09:47:38;2.55;;;1.50;;
55288;SDS011;41154;45.394;5.734;2023-04-23T09:50:05;2.17;;;1.55;;
55288;SDS011;41154;45.394;5.734;2023-04-23T09:52:37;4.10;;;1.90;;
55288;SDS011;41154;45.394;5.734;2023-04-23T09:55:04;3.00;;;1.80;;
55288;SDS011;41154;45.394;5.734;2023-04-23T09:57:39;2.05;;;1.83;;
55288;SDS011;41154;45.394;5.734;2023-04-23T10:00:12;1.55;;;1.45;;
55288;SDS011;41154;45.394;5.734;2023-04-23T10:02:49;3.83;;;1.52;;
55288;SDS011;41154;45.394;5.734;2023-04-23T10:05:19;4.60;;;1.55;;
55288;SDS011;41154;45.394;5.734;2023-04-23T10:07:46;2.53;;;1.63;;
55288;SDS011;41154;45.394;5.734;2023-04-23T10:10:15;2.03;;;1.45;;
55288;SDS011;41154;45.394;5.734;2023-04-23T10:12:42;2.13;;;1.23;;
55288;SDS011;41154;45.394;5.734;2023-04-23T10:15:09;3.42;;;1.75;;
55288;SDS011;41154;45.394;5.734;2023-04-23T10:17:36;2.67;;;1.58;;
55288;SDS011;41154;45.394;5.734;2023-04-23T10:20:03;4.53;;;1.67;;
55288;SDS011;41154;45.394;5.734;2023-04-23T10:22:30;2.50;;;1.50;;
55288;SDS011;41154;45.394;5.734;2023-04-23T10:24:57;2.53;;;1.70;;
55288;SDS011;41154;45.394;5.734;2023-04-23T10:27:27;2.88;;;1.33;;
55288;SDS011;41154;45.394;5.734;2023-04-23T10:29:54;2.83;;;1.60;;
55288;SDS011;41154;45.394;5.734;2023-04-23T10:32:22;3.08;;;1.40;;
55288;SDS011;41154;45.394;5.734;2023-04-23T10:34:48;2.50;;;1.52;;
55288;SDS011;41154;45.394;5.734;2023-04-23T10:37:15;1.70;;;1.25;;
55288;SDS011;41154;45.394;5.734;2023-04-23T10:39:43;5.35;;;1.63;;
55288;SDS011;41154;45.394;5.734;2023-04-23T10:42:14;4.40;;;1.67;;
55288;SDS011;41154;45.394;5.734;2023-04-23T10:44:41;2.95;;;1.60;;
55288;SDS011;41154;45.394;5.734;2023-04-23T10:47:11;2.15;;;1.48;;
55288;SDS011;41154;45.394;5.734;2023-04-23T10:49:38;3.17;;;1.30;;
55288;SDS011;41154;45.394;5.734;2023-04-23T10:52:09;3.10;;;1.50;;
55288;SDS011;41154;45.394;5.734;2023-04-23T10:54:47;2.97;;;1.52;;
55288;SDS011;41154;45.394;5.734;2023-04-23T10:57:14;3.03;;;1.33;;
55288;SDS011;41154;45.394;5.734;2023-04-23T10:59:50;2.60;;;1.60;;
55288;SDS011;41154;45.394;5.734;2023-04-23T11:02:17;2.85;;;1.52;;
55288;SDS011;41154;45.394;5.734;2023-04-23T11:04:44;1.85;;;1.40;;
55288;SDS011;41154;45.394;5.734;2023-04-23T11:07:11;2.10;;;1.15;;
55288;SDS011;41154;45.394;5.734;2023-04-23T11:09:41;2.67;;;1.60;;
55288;SDS011;41154;45.394;5.734;2023-04-23T11:12:12;3.00;;;1.58;;
55288;SDS011;41154;45.394;5.734;2023-04-23T11:14:57;4.07;;;1.20;;
55288;SDS011;41154;45.394;5.734;2023-04-23T11:22:38;5.03;;;1.45;;
55288;SDS011;41154;45.394;5.734;2023-04-23T11:25:10;2.80;;;1.83;;
55288;SDS011;41154;45.394;5.734;2023-04-23T11:27:41;3.55;;;1.73;;
55288;SDS011;41154;45.394;5.734;2023-04-23T11:30:14;1.67;;;1.50;;
55288;SDS011;41154;45.394;5.734;2023-04-23T11:32:44;4.18;;;1.63;;
55288;SDS011;41154;45.394;5.734;2023-04-23T11:35:16;2.38;;;1.45;;
55288;SDS011;41154;45.394;5.734;2023-04-23T11:37:43;1.77;;;1.55;;
55288;SDS011;41154;45.394;5.734;2023-04-23T11:40:11;2.08;;;1.50;;
55288;SDS011;41154;45.394;5.734;2023-04-23T11:42:40;4.75;;;1.70;;
55288;SDS011;41154;45.394;5.734;2023-04-23T11:45:13;4.55;;;1.60;;
55288;SDS011;41154;45.394;5.734;2023-04-23T11:47:47;2.33;;;1.45;;
55288;SDS011;41154;45.394;5.734;2023-04-23T11:52:48;1.63;;;1.40;;
55288;SDS011;41154;45.394;5.734;2023-04-23T11:55:14;1.50;;;1.40;;
55288;SDS011;41154;45.394;5.734;2023-04-23T11:57:41;2.72;;;1.38;;
55288;SDS011;41154;45.394;5.734;2023-04-23T12:02:57;2.30;;;1.30;;
55288;SDS011;41154;45.394;5.734;2023-04-23T12:08:14;2.42;;;1.45;;
55288;SDS011;41154;45.394;5.734;2023-04-23T12:13:24;2.13;;;1.45;;
55288;SDS011;41154;45.394;5.734;2023-04-23T12:15:55;2.75;;;1.67;;
55288;SDS011;41154;45.394;5.734;2023-04-23T12:18:30;4.63;;;1.92;;
55288;SDS011;41154;45.394;5.734;2023-04-23T12:21:07;2.63;;;1.50;;
55288;SDS011;41154;45.394;5.734;2023-04-23T12:23:35;4.03;;;1.70;;
55288;SDS011;41154;45.394;5.734;2023-04-23T12:26:02;2.20;;;1.67;;
55288;SDS011;41154;45.394;5.734;2023-04-23T12:28:28;2.42;;;1.48;;
55288;SDS011;41154;45.394;5.734;2023-04-23T12:30:58;5.45;;;1.50;;
55288;SDS011;41154;45.394;5.734;2023-04-23T12:33:29;4.20;;;1.40;;
55288;SDS011;41154;45.394;5.734;2023-04-23T12:35:56;3.85;;;1.60;;
55288;SDS011;41154;45.394;5.734;2023-04-23T12:38:25;1.65;;;1.15;;
55288;SDS011;41154;45.394;5.734;2023-04-23T12:40:52;3.20;;;1.77;;
55288;SDS011;41154;45.394;5.734;2023-04-23T12:43:20;3.75;;;1.70;;
55288;SDS011;41154;45.394;5.734;2023-04-23T12:45:45;1.70;;;1.35;;
55288;SDS011;41154;45.394;5.734;2023-04-23T12:48:11;2.10;;;1.50;;
55288;SDS011;41154;45.394;5.734;2023-04-23T12:50:37;2.50;;;1.70;;
55288;SDS011;41154;45.394;5.734;2023-04-23T12:53:03;2.35;;;1.70;;
55288;SDS011;41154;45.394;5.734;2023-04-23T12:55:29;2.15;;;1.70;;
55288;SDS011;41154;45.394;5.734;2023-04-23T12:57:55;3.22;;;2.00;;
55288;SDS011;41154;45.394;5.734;2023-04-23T13:00:21;3.50;;;1.95;;
55288;SDS011;41154;45.394;5.734;2023-04-23T13:02:47;4.32;;;1.90;;
55288;SDS011;41154;45.394;5.734;2023-04-23T13:05:13;2.33;;;1.77;;
55288;SDS011;41154;45.394;5.734;2023-04-23T13:07:39;4.75;;;1.63;;
55288;SDS011;41154;45.394;5.734;2023-04-23T13:10:05;1.88;;;1.60;;
55288;SDS011;41154;45.394;5.734;2023-04-23T13:12:32;2.55;;;1.88;;
55288;SDS011;41154;45.394;5.734;2023-04-23T13:14:58;5.32;;;2.05;;
55288;SDS011;41154;45.394;5.734;2023-04-23T13:17:23;4.20;;;1.85;;
55288;SDS011;41154;45.394;5.734;2023-04-23T13:19:53;2.17;;;1.58;;
55288;SDS011;41154;45.394;5.734;2023-04-23T13:22:20;5.40;;;1.90;;
55288;SDS011;41154;45.394;5.734;2023-04-23T13:24:46;1.75;;;1.58;;
55288;SDS011;41154;45.394;5.734;2023-04-23T13:27:12;2.83;;;1.67;;
55288;SDS011;41154;45.394;5.734;2023-04-23T13:29:39;2.72;;;1.73;;
55288;SDS011;41154;45.394;5.734;2023-04-23T13:32:04;1.95;;;1.60;;
55288;SDS011;41154;45.394;5.734;2023-04-23T13:34:31;2.03;;;1.70;;
55288;SDS011;41154;45.394;5.734;2023-04-23T13:36:58;2.10;;;1.67;;
55288;SDS011;41154;45.394;5.734;2023-04-23T13:39:24;3.88;;;1.65;;
55288;SDS011;41154;45.394;5.734;2023-04-23T13:41:50;4.03;;;1.80;;
55288;SDS011;41154;45.394;5.734;2023-04-23T13:44:16;1.88;;;1.67;;
55288;SDS011;41154;45.394;5.734;2023-04-23T13:46:42;3.55;;;1.73;;
55288;SDS011;41154;45.394;5.734;2023-04-23T13:49:07;3.53;;;1.60;;
55288;SDS011;41154;45.394;5.734;2023-04-23T13:51:33;2.78;;;1.83;;
55288;SDS011;41154;45.394;5.734;2023-04-23T13:54:00;2.40;;;1.52;;
55288;SDS011;41154;45.394;5.734;2023-04-23T13:56:26;2.38;;;1.67;;
55288;SDS011;41154;45.394;5.734;2023-04-23T13:58:51;1.90;;;1.65;;
55288;SDS011;41154;45.394;5.734;2023-04-23T14:01:19;2.90;;;1.65;;
55288;SDS011;41154;45.394;5.734;2023-04-23T14:03:45;5.13;;;1.63;;
55288;SDS011;41154;45.394;5.734;2023-04-23T14:06:12;1.92;;;1.42;;
55288;SDS011;41154;45.394;5.734;2023-04-23T14:08:38;3.60;;;1.63;;
55288;SDS011;41154;45.394;5.734;2023-04-23T14:11:04;1.98;;;1.50;;
55288;SDS011;41154;45.394;5.734;2023-04-23T14:13:30;3.30;;;1.92;;
55288;SDS011;41154;45.394;5.734;2023-04-23T14:15:57;2.80;;;1.42;;
55288;SDS011;41154;45.394;5.734;2023-04-23T14:18:23;1.95;;;1.52;;
55288;SDS011;41154;45.394;5.734;2023-04-23T14:20:49;3.92;;;1.67;;
55288;SDS011;41154;45.394;5.734;2023-04-23T14:25:41;2.80;;;1.55;;
55288;SDS011;41154;45.394;5.734;2023-04-23T14:28:44;3.65;;;1.80;;
55288;SDS011;41154;45.394;5.734;2023-04-23T14:31:09;1.83;;;1.50;;
55288;SDS011;41154;45.394;5.734;2023-04-23T14:33:35;3.45;;;2.05;;
55288;SDS011;41154;45.394;5.734;2023-04-23T14:36:01;3.40;;;1.70;;
55288;SDS011;41154;45.394;5.734;2023-04-23T14:38:27;3.30;;;1.77;;
55288;SDS011;41154;45.394;5.734;2023-04-23T14:40:54;2.55;;;1.58;;
55288;SDS011;41154;45.394;5.734;2023-04-23T14:43:20;3.22;;;1.85;;
55288;SDS011;41154;45.394;5.734;2023-04-23T14:45:46;4.32;;;1.90;;
55288;SDS011;41154;45.394;5.734;2023-04-23T14:48:11;2.45;;;1.67;;
55288;SDS011;41154;45.394;5.734;2023-04-23T14:50:37;5.60;;;2.03;;
55288;SDS011;41154;45.394;5.734;2023-04-23T14:53:03;2.40;;;1.75;;
55288;SDS011;41154;45.394;5.734;2023-04-23T14:55:31;5.88;;;1.85;;
55288;SDS011;41154;45.394;5.734;2023-04-23T14:57:57;4.15;;;1.88;;
55288;SDS011;41154;45.394;5.734;2023-04-23T15:00:23;5.78;;;1.92;;
55288;SDS011;41154;45.394;5.734;2023-04-23T15:02:49;4.88;;;2.28;;
55288;SDS011;41154;45.394;5.734;2023-04-23T15:05:15;4.00;;;1.65;;